createdAt,value
2022-09-26T00:00:57.254Z,2
2022-09-26T00:02:40.945Z,2
2022-09-26T00:04:24.695Z,2
2022-09-26T00:06:08.360Z,2
2022-09-26T00:07:52.058Z,2
2022-09-26T00:09:35.763Z,3
2022-09-26T00:11:19.454Z,2
2022-09-26T00:13:03.161Z,2
2022-09-26T00:14:46.853Z,2
2022-09-26T00:16:30.553Z,2
2022-09-26T00:18:14.258Z,3
2022-09-26T00:19:57.961Z,3
2022-09-26T00:21:41.671Z,2
2022-09-26T00:23:25.366Z,2
2022-09-26T00:25:09.074Z,2
2022-09-26T00:26:52.851Z,2
2022-09-26T00:28:36.473Z,1
2022-09-26T00:30:20.185Z,3
2022-09-26T00:32:03.881Z,3
2022-09-26T00:33:47.577Z,2
2022-09-26T00:35:31.277Z,2
2022-09-26T00:37:14.990Z,2
2022-09-26T00:38:58.684Z,2
2022-09-26T00:40:42.389Z,2
2022-09-26T00:42:26.091Z,2
2022-09-26T00:44:09.796Z,2
2022-09-26T00:45:53.499Z,3
2022-09-26T00:47:37.251Z,3
2022-09-26T00:49:20.907Z,2
2022-09-26T00:51:04.606Z,1
2022-09-26T00:52:48.306Z,2
2022-09-26T00:54:32.014Z,3
2022-09-26T00:56:15.746Z,2
2022-09-26T00:57:59.413Z,2
2022-09-26T00:59:43.120Z,2
2022-09-26T01:01:26.819Z,2
2022-09-26T01:03:10.523Z,3
2022-09-26T01:04:54.237Z,2
2022-09-26T01:06:37.920Z,2
2022-09-26T01:08:21.630Z,3
2022-09-26T01:10:05.333Z,2
2022-09-26T01:11:49.031Z,2
2022-09-26T01:13:32.729Z,2
2022-09-26T01:15:16.435Z,2
2022-09-26T01:17:00.139Z,3
2022-09-26T01:18:43.840Z,2
2022-09-26T01:20:27.536Z,3
2022-09-26T01:22:11.247Z,2
2022-09-26T01:23:54.951Z,2
2022-09-26T01:25:38.674Z,2
2022-09-26T01:27:22.421Z,2
2022-09-26T01:29:06.056Z,2
2022-09-26T01:30:49.749Z,2
2022-09-26T01:32:33.458Z,2
2022-09-26T01:34:17.209Z,2
2022-09-26T01:36:00.860Z,2
2022-09-26T01:37:44.607Z,3
2022-09-26T01:39:28.269Z,2
2022-09-26T01:41:11.962Z,3
2022-09-26T01:42:55.666Z,2
2022-09-26T01:44:39.366Z,2
2022-09-26T01:46:23.070Z,2
2022-09-26T01:48:06.822Z,2
2022-09-26T01:49:50.476Z,2
2022-09-26T01:51:34.203Z,2
2022-09-26T01:53:17.961Z,2
2022-09-26T01:55:01.595Z,2
2022-09-26T01:56:45.312Z,3
2022-09-26T01:58:28.980Z,2
2022-09-26T02:00:12.693Z,2
2022-09-26T02:01:56.397Z,3
2022-09-26T02:03:40.105Z,2
2022-09-26T02:05:23.837Z,2
2022-09-26T02:07:07.513Z,2
2022-09-26T02:08:51.194Z,3
2022-09-26T02:10:34.926Z,2
2022-09-26T02:12:18.669Z,3
2022-09-26T02:14:02.319Z,2
2022-09-26T02:15:46.016Z,3
2022-09-26T02:17:29.729Z,2
2022-09-26T02:19:13.413Z,2
2022-09-26T02:20:57.124Z,3
2022-09-26T02:22:40.819Z,2
2022-09-26T02:24:24.524Z,3
2022-09-26T02:26:08.227Z,2
2022-09-26T02:27:51.919Z,2
2022-09-26T02:29:35.620Z,2
2022-09-26T02:31:19.327Z,2
2022-09-26T02:33:03.026Z,3
2022-09-26T02:34:46.740Z,3
2022-09-26T02:36:30.447Z,3
2022-09-26T02:38:14.136Z,2
2022-09-26T02:39:57.843Z,2
2022-09-26T02:41:41.539Z,2
2022-09-26T02:43:25.238Z,2
2022-09-26T02:45:08.980Z,2
2022-09-26T02:46:52.641Z,2
2022-09-26T02:48:36.349Z,2
2022-09-26T02:50:20.046Z,3
2022-09-26T02:52:03.753Z,3
2022-09-26T02:53:47.457Z,3
2022-09-26T02:55:31.149Z,2
2022-09-26T02:57:14.854Z,2
2022-09-26T02:58:58.561Z,2
2022-09-26T03:00:42.255Z,2
2022-09-26T03:02:25.959Z,2
2022-09-26T03:04:09.662Z,3
2022-09-26T03:05:53.358Z,2
2022-09-26T03:07:37.077Z,2
2022-09-26T03:09:20.765Z,3
2022-09-26T03:11:04.470Z,3
2022-09-26T03:12:48.181Z,3
2022-09-26T03:14:31.873Z,2
2022-09-26T03:16:15.576Z,2
2022-09-26T03:17:59.285Z,2
2022-09-26T03:19:43.035Z,2
2022-09-26T03:21:26.688Z,3
2022-09-26T03:23:10.407Z,2
2022-09-26T03:24:54.082Z,2
2022-09-26T03:26:37.805Z,1
2022-09-26T03:28:21.488Z,3
2022-09-26T03:30:05.215Z,2
2022-09-26T03:31:48.898Z,2
2022-09-26T03:33:32.593Z,2
2022-09-26T03:35:16.340Z,3
2022-09-26T03:36:59.999Z,3
2022-09-26T03:38:43.696Z,2
2022-09-26T03:40:27.403Z,2
2022-09-26T03:42:11.108Z,2
2022-09-26T03:43:54.809Z,2
2022-09-26T03:45:38.513Z,2
2022-09-26T03:47:22.208Z,2
2022-09-26T03:49:05.911Z,2
2022-09-26T03:50:49.615Z,3
2022-09-26T03:52:33.316Z,2
2022-09-26T03:54:17.042Z,2
2022-09-26T03:56:00.723Z,2
2022-09-26T03:57:44.412Z,3
2022-09-26T03:59:28.134Z,2
2022-09-26T04:01:11.844Z,2
2022-09-26T04:02:55.526Z,3
2022-09-26T04:04:39.254Z,2
2022-09-26T04:06:22.931Z,2
2022-09-26T04:08:06.664Z,3
2022-09-26T04:09:50.348Z,3
2022-09-26T04:11:34.030Z,3
2022-09-26T04:13:17.737Z,2
2022-09-26T04:15:01.441Z,2
2022-09-26T04:16:45.182Z,3
2022-09-26T04:18:28.843Z,3
2022-09-26T04:20:12.562Z,2
2022-09-26T04:21:56.247Z,2
2022-09-26T04:23:39.956Z,3
2022-09-26T04:25:23.651Z,2
2022-09-26T04:27:07.393Z,2
2022-09-26T04:28:51.079Z,2
2022-09-26T04:30:34.761Z,3
2022-09-26T04:32:18.490Z,2
2022-09-26T04:34:02.168Z,2
2022-09-26T04:35:45.918Z,2
2022-09-26T04:37:29.559Z,3
2022-09-26T04:39:13.270Z,3
2022-09-26T04:40:57.016Z,3
2022-09-26T04:42:40.683Z,3
2022-09-26T04:44:24.388Z,2
2022-09-26T04:46:08.082Z,2
2022-09-26T04:47:51.850Z,3
2022-09-26T04:49:35.481Z,3
2022-09-26T04:51:19.181Z,3
2022-09-26T04:53:02.896Z,4
2022-09-26T04:54:46.590Z,4
2022-09-26T04:56:30.295Z,4
2022-09-26T04:58:14.007Z,6
2022-09-26T04:59:57.698Z,7
2022-09-26T05:01:41.409Z,9
2022-09-26T05:03:25.101Z,12
2022-09-26T05:05:08.888Z,14
2022-09-26T05:06:52.541Z,17
2022-09-26T05:08:36.207Z,20
2022-09-26T05:10:24.298Z,23
2022-09-26T05:12:26.427Z,30
2022-09-26T05:14:10.086Z,34
2022-09-26T05:15:53.796Z,40
2022-09-26T05:17:37.499Z,44
2022-09-26T05:19:21.261Z,50
2022-09-26T05:21:04.898Z,56
2022-09-26T05:22:48.679Z,63
2022-09-26T05:24:32.307Z,72
2022-09-26T05:26:16.007Z,80
2022-09-26T05:27:59.747Z,88
2022-09-26T05:29:43.456Z,116
2022-09-26T05:31:27.109Z,107
2022-09-26T05:33:10.827Z,114
2022-09-26T05:34:54.531Z,129
2022-09-26T05:36:38.222Z,140
2022-09-26T05:38:21.960Z,150
2022-09-26T05:40:05.636Z,162
2022-09-26T05:41:49.346Z,171
2022-09-26T05:43:33.073Z,179
2022-09-26T05:45:16.807Z,185
2022-09-26T05:47:00.445Z,188
2022-09-26T05:48:44.183Z,192
2022-09-26T05:50:27.843Z,205
2022-09-26T05:52:11.607Z,227
2022-09-26T05:53:55.283Z,254
2022-09-26T05:55:38.952Z,269
2022-09-26T05:57:22.659Z,288
2022-09-26T05:59:06.360Z,301
2022-09-26T06:00:50.060Z,323
2022-09-26T06:02:33.815Z,319
2022-09-26T06:04:17.469Z,328
2022-09-26T06:06:01.171Z,340
2022-09-26T06:07:44.911Z,356
2022-09-26T06:09:28.570Z,370
2022-09-26T06:11:12.274Z,390
2022-09-26T06:12:55.978Z,409
2022-09-26T06:14:39.683Z,515
2022-09-26T06:16:23.415Z,525
2022-09-26T06:18:07.081Z,696
2022-09-26T06:19:50.787Z,739
2022-09-26T06:21:34.490Z,740
2022-09-26T06:23:18.221Z,487
2022-09-26T06:25:01.898Z,524
2022-09-26T06:26:45.590Z,458
2022-09-26T06:28:29.289Z,455
2022-09-26T06:30:12.993Z,451
2022-09-26T06:31:56.721Z,454
2022-09-26T06:33:40.402Z,456
2022-09-26T06:35:24.101Z,463
2022-09-26T06:37:07.809Z,461
2022-09-26T06:38:51.503Z,454
2022-09-26T06:40:35.232Z,453
2022-09-26T06:42:18.976Z,453
2022-09-26T06:44:02.624Z,459
2022-09-26T06:45:46.325Z,468
2022-09-26T06:47:30.045Z,487
2022-09-26T06:49:13.718Z,503
2022-09-26T06:50:57.436Z,514
2022-09-26T06:52:41.157Z,529
2022-09-26T06:54:24.833Z,546
2022-09-26T06:56:08.526Z,566
2022-09-26T06:57:52.232Z,591
2022-09-26T06:59:35.993Z,626
2022-09-26T07:01:19.698Z,667
2022-09-26T07:03:03.338Z,715
2022-09-26T07:04:47.045Z,740
2022-09-26T07:06:30.747Z,740
2022-09-26T07:08:14.477Z,740
2022-09-26T07:09:58.156Z,739
2022-09-26T07:11:41.877Z,740
2022-09-26T07:13:25.564Z,739
2022-09-26T07:15:09.279Z,740
2022-09-26T07:16:52.962Z,740
2022-09-26T07:18:36.665Z,740
2022-09-26T07:20:20.389Z,739
2022-09-26T07:22:04.067Z,740
2022-09-26T07:23:47.771Z,740
2022-09-26T07:25:31.473Z,741
2022-09-26T07:27:15.175Z,740
2022-09-26T07:28:58.881Z,730
2022-09-26T07:30:42.683Z,741
2022-09-26T07:32:26.301Z,740
2022-09-26T07:34:09.982Z,739
2022-09-26T07:35:53.694Z,740
2022-09-26T07:37:37.396Z,741
2022-09-26T07:39:21.101Z,742
2022-09-26T07:41:04.796Z,740
2022-09-26T07:42:48.497Z,739
2022-09-26T07:44:32.205Z,740
2022-09-26T07:46:15.908Z,741
2022-09-26T07:47:59.609Z,731
2022-09-26T07:49:43.322Z,740
2022-09-26T07:51:27.006Z,740
2022-09-26T07:53:10.819Z,740
2022-09-26T07:54:54.413Z,739
2022-09-26T07:56:38.118Z,739
2022-09-26T07:58:21.815Z,740
2022-09-26T08:00:05.531Z,741
2022-09-26T08:01:49.222Z,740
2022-09-26T08:03:32.922Z,739
2022-09-26T08:05:16.632Z,741
2022-09-26T08:07:00.333Z,740
2022-09-26T08:08:44.047Z,740
2022-09-26T08:10:27.769Z,739
2022-09-26T08:12:11.435Z,740
2022-09-26T08:13:55.138Z,741
2022-09-26T08:15:38.842Z,740
2022-09-26T08:17:22.540Z,739
2022-09-26T08:19:06.246Z,740
2022-09-26T08:20:49.947Z,732
2022-09-26T08:22:33.651Z,739
2022-09-26T08:24:17.352Z,739
2022-09-26T08:26:01.061Z,741
2022-09-26T08:27:44.760Z,741
2022-09-26T08:29:28.456Z,739
2022-09-26T08:31:12.174Z,739
2022-09-26T08:32:55.857Z,740
2022-09-26T08:34:39.565Z,741
2022-09-26T08:36:23.260Z,739
2022-09-26T08:38:06.957Z,740
2022-09-26T08:39:50.663Z,731
2022-09-26T08:41:34.407Z,741
2022-09-26T08:43:18.076Z,740
2022-09-26T08:45:01.762Z,740
2022-09-26T08:46:45.498Z,741
2022-09-26T08:48:29.170Z,741
2022-09-26T08:50:12.870Z,740
2022-09-26T08:51:56.577Z,740
2022-09-26T08:53:40.283Z,740
2022-09-26T08:55:23.980Z,741
2022-09-26T08:57:07.686Z,738
2022-09-26T08:58:51.380Z,737
2022-09-26T09:00:35.089Z,740
2022-09-26T09:02:18.791Z,740
2022-09-26T09:04:02.531Z,740
2022-09-26T09:05:46.188Z,740
2022-09-26T09:07:29.946Z,740
2022-09-26T09:09:13.584Z,741
2022-09-26T09:10:57.293Z,740
2022-09-26T09:12:41.013Z,739
2022-09-26T09:14:24.824Z,741
2022-09-26T09:16:08.401Z,740
2022-09-26T09:17:52.230Z,740
2022-09-26T09:19:35.829Z,740
2022-09-26T09:21:19.624Z,741
2022-09-26T09:23:03.219Z,741
2022-09-26T09:24:47.009Z,740
2022-09-26T09:26:30.746Z,740
2022-09-26T09:28:14.300Z,741
2022-09-26T09:29:58.051Z,741
2022-09-26T09:31:41.715Z,740
2022-09-26T09:33:25.429Z,740
2022-09-26T09:35:09.108Z,741
2022-09-26T09:36:52.806Z,741
2022-09-26T09:38:36.516Z,741
2022-09-26T09:40:20.217Z,741
2022-09-26T09:42:03.914Z,741
2022-09-26T09:43:47.614Z,741
2022-09-26T09:45:31.322Z,740
2022-09-26T09:47:15.029Z,741
2022-09-26T09:48:58.735Z,741
2022-09-26T09:50:42.434Z,740
2022-09-26T09:52:26.133Z,741
2022-09-26T09:54:09.833Z,741
2022-09-26T09:55:53.534Z,741
2022-09-26T09:57:37.236Z,740
2022-09-26T09:59:20.943Z,741
2022-09-26T10:01:04.639Z,742
2022-09-26T10:02:48.343Z,742
2022-09-26T10:04:32.045Z,741
2022-09-26T10:06:15.746Z,740
2022-09-26T10:07:59.446Z,740
2022-09-26T10:09:43.152Z,741
2022-09-26T10:11:26.846Z,740
2022-09-26T10:13:10.553Z,740
2022-09-26T10:14:54.251Z,741
2022-09-26T10:16:37.975Z,741
2022-09-26T10:18:21.659Z,740
2022-09-26T10:20:05.358Z,741
2022-09-26T10:21:49.074Z,741
2022-09-26T10:23:32.785Z,741
2022-09-26T10:25:16.454Z,740
2022-09-26T10:27:00.159Z,740
2022-09-26T10:28:43.867Z,740
2022-09-26T10:30:27.561Z,742
2022-09-26T10:32:11.281Z,740
2022-09-26T10:33:54.959Z,740
2022-09-26T10:35:38.666Z,741
2022-09-26T10:37:22.371Z,741
2022-09-26T10:39:06.072Z,741
2022-09-26T10:40:49.773Z,741
2022-09-26T10:42:33.531Z,740
2022-09-26T10:44:17.173Z,741
2022-09-26T10:46:00.874Z,740
2022-09-26T10:47:44.577Z,732
2022-09-26T10:49:28.276Z,741
2022-09-26T10:51:11.978Z,741
2022-09-26T10:52:55.683Z,741
2022-09-26T10:54:39.384Z,741
2022-09-26T10:56:23.089Z,741
2022-09-26T10:58:06.789Z,742
2022-09-26T10:59:50.492Z,741
2022-09-26T11:01:34.196Z,741
2022-09-26T11:03:17.885Z,741
2022-09-26T11:05:01.592Z,741
2022-09-26T11:06:45.302Z,734
2022-09-26T11:08:28.996Z,741
2022-09-26T11:10:12.701Z,741
2022-09-26T11:11:56.416Z,741
2022-09-26T11:13:40.101Z,741
2022-09-26T11:15:23.804Z,741
2022-09-26T11:17:07.559Z,741
2022-09-26T11:18:51.206Z,741
2022-09-26T11:20:34.913Z,740
2022-09-26T11:22:18.618Z,742
2022-09-26T11:24:02.314Z,741
2022-09-26T11:25:46.021Z,732
2022-09-26T11:27:29.725Z,741
2022-09-26T11:29:13.422Z,741
2022-09-26T11:30:57.126Z,741
2022-09-26T11:34:24.526Z,741
2022-09-26T11:36:08.235Z,741
2022-09-26T11:37:51.941Z,742
2022-09-26T11:39:35.645Z,740
2022-09-26T11:41:19.338Z,740
2022-09-26T11:43:03.043Z,741
2022-09-26T11:44:46.742Z,742
2022-09-26T11:46:30.501Z,742
2022-09-26T11:48:14.142Z,741
2022-09-26T11:49:57.846Z,740
2022-09-26T11:51:41.544Z,741
2022-09-26T11:53:25.275Z,741
2022-09-26T11:55:08.948Z,741
2022-09-26T11:56:52.655Z,741
2022-09-26T11:58:36.360Z,742
2022-09-26T12:00:20.082Z,741
2022-09-26T12:02:03.759Z,744
2022-09-26T12:03:47.468Z,742
2022-09-26T12:05:31.221Z,741
2022-09-26T12:07:14.934Z,741
2022-09-26T12:08:58.561Z,740
2022-09-26T12:10:42.259Z,742
2022-09-26T12:12:25.965Z,741
2022-09-26T12:14:09.669Z,739
2022-09-26T12:15:53.364Z,741
2022-09-26T12:17:37.070Z,742
2022-09-26T12:19:20.813Z,741
2022-09-26T12:21:04.472Z,740
2022-09-26T12:22:48.197Z,741
2022-09-26T12:24:31.871Z,742
2022-09-26T12:26:15.578Z,742
2022-09-26T12:27:59.282Z,741
2022-09-26T12:29:42.985Z,741
2022-09-26T12:31:26.676Z,741
2022-09-26T12:33:10.414Z,741
2022-09-26T12:34:54.103Z,741
2022-09-26T12:36:37.776Z,741
2022-09-26T12:38:21.484Z,741
2022-09-26T12:40:05.187Z,741
2022-09-26T12:41:48.908Z,741
2022-09-26T12:43:32.591Z,741
2022-09-26T12:45:16.306Z,741
2022-09-26T12:46:59.998Z,741
2022-09-26T12:48:43.706Z,741
2022-09-26T12:50:27.408Z,742
2022-09-26T12:52:11.106Z,731
2022-09-26T12:53:54.797Z,741
2022-09-26T12:55:38.506Z,741
2022-09-26T12:57:22.203Z,742
2022-09-26T12:59:05.907Z,742
2022-09-26T13:00:49.611Z,740
2022-09-26T13:02:33.305Z,741
2022-09-26T13:04:17.017Z,741
2022-09-26T13:06:00.713Z,742
2022-09-26T13:07:44.436Z,741
2022-09-26T13:09:28.110Z,741
2022-09-26T13:11:11.816Z,738
2022-09-26T13:12:55.518Z,741
2022-09-26T13:14:39.278Z,742
2022-09-26T13:16:22.916Z,741
2022-09-26T13:18:06.619Z,741
2022-09-26T13:19:50.326Z,741
2022-09-26T13:21:34.018Z,740
2022-09-26T13:23:17.721Z,741
2022-09-26T13:25:01.431Z,742
2022-09-26T13:26:45.133Z,741
2022-09-26T13:28:28.831Z,741
2022-09-26T13:31:56.241Z,741
2022-09-26T13:33:39.942Z,741
2022-09-26T13:35:23.636Z,741
2022-09-26T13:37:07.343Z,741
2022-09-26T13:38:51.049Z,741
2022-09-26T13:40:34.746Z,741
2022-09-26T13:42:18.447Z,741
2022-09-26T13:44:02.161Z,740
2022-09-26T13:45:45.848Z,741
2022-09-26T13:47:29.566Z,741
2022-09-26T13:49:13.253Z,741
2022-09-26T13:50:56.962Z,742
2022-09-26T13:52:40.717Z,741
2022-09-26T13:54:24.410Z,741
2022-09-26T13:56:08.067Z,740
2022-09-26T13:57:51.767Z,741
2022-09-26T13:59:35.463Z,741
2022-09-26T14:01:19.167Z,741
2022-09-26T14:03:02.877Z,740
2022-09-26T14:04:46.577Z,742
2022-09-26T14:06:30.284Z,742
2022-09-26T14:08:13.987Z,741
2022-09-26T14:09:57.697Z,741
2022-09-26T14:11:41.420Z,742
2022-09-26T14:15:08.791Z,741
2022-09-26T14:16:52.549Z,741
2022-09-26T14:18:36.192Z,741
2022-09-26T14:20:19.896Z,741
2022-09-26T14:22:03.708Z,741
2022-09-26T14:23:47.431Z,741
2022-09-26T14:25:31.136Z,741
2022-09-26T14:27:14.844Z,740
2022-09-26T14:28:58.467Z,741
2022-09-26T14:30:42.120Z,741
2022-09-26T14:32:25.883Z,742
2022-09-26T14:34:09.518Z,742
2022-09-26T14:35:53.223Z,741
2022-09-26T14:37:36.939Z,741
2022-09-26T14:39:20.628Z,741
2022-09-26T14:41:04.399Z,741
2022-09-26T14:42:48.023Z,742
2022-09-26T14:44:31.738Z,741
2022-09-26T14:46:15.478Z,732
2022-09-26T14:47:59.149Z,741
2022-09-26T14:49:42.848Z,740
2022-09-26T14:51:26.561Z,741
2022-09-26T14:53:10.270Z,742
2022-09-26T14:54:53.946Z,742
2022-09-26T14:56:37.643Z,741
2022-09-26T14:58:21.400Z,741
2022-09-26T15:00:05.116Z,741
2022-09-26T15:01:48.736Z,741
2022-09-26T15:03:32.460Z,739
2022-09-26T15:05:16.161Z,733
2022-09-26T15:06:59.852Z,742
2022-09-26T15:08:43.553Z,742
2022-09-26T15:10:27.252Z,740
2022-09-26T15:12:10.961Z,741
2022-09-26T15:13:54.662Z,741
2022-09-26T15:15:38.382Z,742
2022-09-26T15:17:22.061Z,741
2022-09-26T15:19:05.760Z,741
2022-09-26T15:20:49.465Z,741
2022-09-26T15:22:33.167Z,741
2022-09-26T15:24:16.880Z,732
2022-09-26T15:26:00.577Z,726
2022-09-26T15:27:44.277Z,727
2022-09-26T15:29:27.968Z,739
2022-09-26T15:31:11.680Z,740
2022-09-26T15:32:55.383Z,741
2022-09-26T15:34:39.087Z,741
2022-09-26T15:36:22.782Z,719
2022-09-26T15:38:06.484Z,669
2022-09-26T15:39:50.321Z,637
2022-09-26T15:41:33.891Z,606
2022-09-26T15:43:17.604Z,580
2022-09-26T15:45:01.294Z,561
2022-09-26T15:46:45.006Z,557
2022-09-26T15:48:28.740Z,569
2022-09-26T15:50:12.394Z,550
2022-09-26T15:51:56.101Z,511
2022-09-26T15:53:39.788Z,470
2022-09-26T15:55:23.503Z,428
2022-09-26T15:57:07.204Z,422
2022-09-26T15:58:50.890Z,415
2022-09-26T16:00:34.599Z,398
2022-09-26T16:02:18.302Z,378
2022-09-26T16:04:02.010Z,361
2022-09-26T16:05:45.746Z,343
2022-09-26T16:07:29.405Z,324
2022-09-26T16:09:13.220Z,315
2022-09-26T16:10:56.864Z,301
2022-09-26T16:12:40.515Z,277
2022-09-26T16:14:24.286Z,249
2022-09-26T16:16:07.920Z,240
2022-09-26T16:17:51.634Z,229
2022-09-26T16:19:35.313Z,203
2022-09-26T16:21:19.019Z,189
2022-09-26T16:23:02.721Z,176
2022-09-26T16:24:46.433Z,160
2022-09-26T16:26:30.120Z,144
2022-09-26T16:28:13.829Z,131
2022-09-26T16:29:57.533Z,122
2022-09-26T16:31:41.221Z,120
2022-09-26T16:33:24.954Z,120
2022-09-26T16:35:08.658Z,121
2022-09-26T16:36:52.338Z,119
2022-09-26T16:38:36.048Z,115
2022-09-26T16:40:19.734Z,106
2022-09-26T16:42:03.441Z,96
2022-09-26T16:43:47.157Z,84
2022-09-26T16:45:30.840Z,73
2022-09-26T16:47:14.561Z,64
2022-09-26T16:48:58.244Z,56
2022-09-26T16:50:41.951Z,50
2022-09-26T16:52:25.641Z,45
2022-09-26T16:54:09.347Z,41
2022-09-26T16:55:53.043Z,37
2022-09-26T16:57:36.743Z,33
2022-09-26T16:59:20.451Z,30
2022-09-26T17:01:04.203Z,38
2022-09-26T17:02:47.855Z,35
2022-09-26T17:04:31.585Z,26
2022-09-26T17:06:15.254Z,18
2022-09-26T17:07:58.974Z,16
2022-09-26T17:09:42.652Z,15
2022-09-26T17:11:26.352Z,14
2022-09-26T17:13:10.100Z,14
2022-09-26T17:14:53.757Z,13
2022-09-26T17:16:37.454Z,12
2022-09-26T17:18:21.167Z,13
2022-09-26T17:20:04.853Z,12
2022-09-26T17:21:48.559Z,12
2022-09-26T17:23:32.267Z,11
2022-09-26T17:25:15.991Z,17
2022-09-26T17:26:59.672Z,18
2022-09-26T17:28:43.444Z,17
2022-09-26T17:30:27.080Z,18
2022-09-26T17:32:10.822Z,16
2022-09-26T17:33:54.504Z,17
2022-09-26T17:35:38.196Z,18
2022-09-26T17:37:21.878Z,17
2022-09-26T17:39:05.572Z,17
2022-09-26T17:40:49.281Z,16
2022-09-26T17:42:32.996Z,16
2022-09-26T17:44:16.681Z,17
2022-09-26T17:46:00.383Z,17
2022-09-26T17:47:44.130Z,17
2022-09-26T17:49:27.843Z,17
2022-09-26T17:51:11.495Z,16
2022-09-26T17:52:55.202Z,16
2022-09-26T17:54:38.973Z,16
2022-09-26T17:56:22.601Z,16
2022-09-26T17:58:06.302Z,17
2022-09-26T17:59:50.006Z,16
2022-09-26T18:01:33.714Z,16
2022-09-26T18:03:17.404Z,17
2022-09-26T18:05:01.105Z,16
2022-09-26T18:06:44.849Z,17
2022-09-26T18:08:28.511Z,16
2022-09-26T18:10:12.211Z,16
2022-09-26T18:11:55.913Z,17
2022-09-26T18:13:39.655Z,17
2022-09-26T18:15:23.318Z,16
2022-09-26T18:17:07.026Z,16
2022-09-26T18:18:50.718Z,2
2022-09-26T18:20:34.426Z,2
2022-09-26T18:22:18.117Z,1
2022-09-26T18:24:01.867Z,1
2022-09-26T18:25:45.546Z,2
2022-09-26T18:27:29.230Z,2
2022-09-26T18:29:12.932Z,1
2022-09-26T18:30:56.634Z,1
2022-09-26T18:32:40.352Z,0
2022-09-26T18:34:24.053Z,17
2022-09-26T18:36:07.739Z,16
2022-09-26T18:37:51.480Z,16
2022-09-26T18:39:35.155Z,17
2022-09-26T18:41:18.866Z,17
2022-09-26T18:43:02.548Z,17
2022-09-26T18:44:46.252Z,17
2022-09-26T18:46:29.945Z,16
2022-09-26T18:48:13.651Z,16
2022-09-26T18:49:57.366Z,17
2022-09-26T18:51:41.058Z,17
2022-09-26T18:53:24.776Z,17
2022-09-26T18:55:08.460Z,9
2022-09-26T18:56:52.249Z,8
2022-09-26T18:58:35.871Z,9
2022-09-26T19:00:19.621Z,9
2022-09-26T19:02:03.277Z,9
2022-09-26T19:03:46.979Z,8
2022-09-26T19:05:30.694Z,8
2022-09-26T19:07:14.373Z,8
2022-09-26T19:08:58.073Z,8
2022-09-26T19:10:41.794Z,9
2022-09-26T19:12:25.516Z,8
2022-09-26T19:14:09.191Z,8
2022-09-26T19:15:52.884Z,8
2022-09-26T19:17:36.617Z,7
2022-09-26T19:19:20.322Z,8
2022-09-26T19:21:04.109Z,6
2022-09-26T19:22:47.850Z,8
2022-09-26T19:24:31.525Z,8
2022-09-26T19:26:15.193Z,8
2022-09-26T19:27:58.887Z,8
2022-09-26T19:29:42.604Z,8
2022-09-26T19:31:26.207Z,8
2022-09-26T19:33:09.929Z,7
2022-09-26T19:34:53.585Z,8
2022-09-26T19:36:37.294Z,8
2022-09-26T19:38:21.036Z,8
2022-09-26T19:40:04.700Z,9
2022-09-26T19:41:48.396Z,9
2022-09-26T19:43:32.117Z,8
2022-09-26T19:45:15.843Z,8
2022-09-26T19:46:59.559Z,8
2022-09-26T19:48:43.321Z,9
2022-09-26T19:50:26.910Z,9
2022-09-26T19:52:10.648Z,8
2022-09-26T19:53:54.311Z,8
2022-09-26T19:55:38.038Z,8
2022-09-26T19:57:21.711Z,8
2022-09-26T19:59:05.448Z,6
2022-09-26T20:00:49.181Z,9
2022-09-26T20:02:32.886Z,9
2022-09-26T20:04:16.521Z,8
2022-09-26T20:06:00.228Z,9
2022-09-26T20:07:43.920Z,1
2022-09-26T20:09:27.630Z,2
2022-09-26T20:11:11.333Z,1
2022-09-26T20:12:55.027Z,1
2022-09-26T20:14:38.732Z,1
2022-09-26T20:16:22.435Z,1
2022-09-26T20:18:06.158Z,1
2022-09-26T20:19:49.872Z,1
2022-09-26T20:21:33.539Z,1
2022-09-26T20:23:17.244Z,2
2022-09-26T20:25:00.944Z,2
2022-09-26T20:26:44.658Z,1
2022-09-26T20:28:28.345Z,1
2022-09-26T20:30:12.063Z,0
2022-09-26T20:31:55.751Z,1
2022-09-26T20:33:39.442Z,1
2022-09-26T20:35:23.227Z,3
2022-09-26T20:37:06.882Z,3
2022-09-26T20:38:50.549Z,3
2022-09-26T20:40:34.244Z,4
2022-09-26T20:42:17.981Z,0
2022-09-26T20:44:01.655Z,1
2022-09-26T20:45:45.356Z,0
2022-09-26T20:47:29.063Z,1
2022-09-26T20:49:12.763Z,1
2022-09-26T20:50:56.471Z,2
2022-09-26T20:52:40.168Z,1
2022-09-26T20:54:23.868Z,1
2022-09-26T20:56:07.611Z,1
2022-09-26T20:57:51.288Z,1
2022-09-26T20:59:34.972Z,1
2022-09-26T21:01:18.676Z,1
2022-09-26T21:03:02.397Z,2
2022-09-26T21:04:46.078Z,1
2022-09-26T21:06:29.778Z,1
2022-09-26T21:08:13.485Z,1
2022-09-26T21:09:57.193Z,1
2022-09-26T21:11:40.887Z,1
2022-09-26T21:13:24.580Z,1
2022-09-26T21:15:08.287Z,1
2022-09-26T21:16:51.983Z,1
2022-09-26T21:18:35.710Z,1
2022-09-26T21:20:19.389Z,9
2022-09-26T21:22:03.088Z,8
2022-09-26T21:23:46.789Z,8
2022-09-26T21:25:30.488Z,8
2022-09-26T21:27:14.270Z,1
2022-09-26T21:28:57.900Z,1
2022-09-26T21:30:41.596Z,1
2022-09-26T21:32:25.466Z,1
2022-09-26T21:34:09.022Z,1
2022-09-26T21:35:52.701Z,1
2022-09-26T21:37:36.411Z,2
2022-09-26T21:39:20.110Z,1
2022-09-26T21:41:03.833Z,1
2022-09-26T21:42:47.507Z,1
2022-09-26T21:44:31.219Z,1
2022-09-26T21:46:14.917Z,1
2022-09-26T21:47:58.620Z,2
2022-09-26T21:49:42.309Z,2
2022-09-26T21:51:26.031Z,0
2022-09-26T21:53:09.722Z,1
2022-09-26T21:54:53.420Z,1
2022-09-26T21:56:37.115Z,1
2022-09-26T21:58:20.823Z,1
2022-09-26T22:00:04.530Z,2
2022-09-26T22:01:48.219Z,1
2022-09-26T22:03:31.936Z,1
2022-09-26T22:05:15.648Z,1
2022-09-26T22:06:59.366Z,1
2022-09-26T22:08:43.045Z,2
2022-09-26T22:10:26.744Z,1
2022-09-26T22:12:10.444Z,1
2022-09-26T22:13:54.139Z,1
2022-09-26T22:15:37.870Z,1
2022-09-26T22:17:21.549Z,1
2022-09-26T22:19:05.243Z,1
2022-09-26T22:20:48.946Z,1
2022-09-26T22:22:32.657Z,1
2022-09-26T22:24:16.439Z,1
2022-09-26T22:26:00.055Z,2
2022-09-26T22:27:43.788Z,1
2022-09-26T22:29:27.493Z,1
2022-09-26T22:31:11.277Z,1
2022-09-26T22:32:54.852Z,1
2022-09-26T22:34:38.558Z,1
2022-09-26T22:36:22.263Z,1
2022-09-26T22:38:05.965Z,1
2022-09-26T22:39:49.662Z,1
2022-09-26T22:41:33.370Z,1
2022-09-26T22:43:17.067Z,2
2022-09-26T22:45:00.783Z,2
2022-09-26T22:46:44.483Z,1
2022-09-26T22:48:28.179Z,1
2022-09-26T22:50:11.914Z,1
2022-09-26T22:51:55.575Z,1
2022-09-26T22:53:39.281Z,1
2022-09-26T22:55:22.986Z,1
2022-09-26T22:57:06.695Z,1
2022-09-26T22:58:50.387Z,1
2022-09-26T23:00:34.094Z,2
2022-09-26T23:02:17.780Z,1
2022-09-26T23:04:01.502Z,1
2022-09-26T23:05:45.186Z,2
2022-09-26T23:07:28.891Z,1
2022-09-26T23:09:12.635Z,1
2022-09-26T23:10:56.289Z,1
2022-09-26T23:12:40.006Z,1
2022-09-26T23:14:23.696Z,1
2022-09-26T23:16:07.396Z,1
2022-09-26T23:17:51.103Z,0
2022-09-26T23:19:34.814Z,1
2022-09-26T23:21:18.494Z,1
2022-09-26T23:23:02.193Z,1
2022-09-26T23:24:45.920Z,1
2022-09-26T23:26:29.632Z,1
2022-09-26T23:28:13.310Z,2
2022-09-26T23:29:57.013Z,1
2022-09-26T23:31:40.795Z,1
2022-09-26T23:33:24.418Z,1
2022-09-26T23:35:08.110Z,1
2022-09-26T23:36:51.882Z,1
2022-09-26T23:38:35.518Z,1
2022-09-26T23:40:19.224Z,1
2022-09-26T23:42:02.915Z,1
2022-09-26T23:43:46.620Z,1
2022-09-26T23:45:30.326Z,1
2022-09-26T23:47:14.023Z,2
2022-09-26T23:48:57.725Z,1
2022-09-26T23:50:41.426Z,2
2022-09-26T23:52:25.132Z,2
2022-09-26T23:54:08.835Z,0
2022-09-26T23:55:52.531Z,1
2022-09-26T23:57:36.252Z,0
2022-09-26T23:59:19.937Z,1
